sensor_id;sensor_type;location;lat;lon;timestamp;P1;durP1;ratioP1;P2;durP2;ratioP2
6031;SDS011;3044;43.232;27.972;2023-08-24T00:02:03;11.00;;;8.30;;
6031;SDS011;3044;43.232;27.972;2023-08-24T00:04:30;9.30;;;7.70;;
6031;SDS011;3044;43.232;27.972;2023-08-24T00:06:57;9.33;;;8.00;;
6031;SDS011;3044;43.232;27.972;2023-08-24T00:09:24;8.60;;;7.87;;
6031;SDS011;3044;43.232;27.972;2023-08-24T00:11:51;8.67;;;8.03;;
6031;SDS011;3044;43.232;27.972;2023-08-24T00:14:19;9.00;;;8.20;;
6031;SDS011;3044;43.232;27.972;2023-08-24T00:16:48;9.00;;;8.20;;
6031;SDS011;3044;43.232;27.972;2023-08-24T00:19:15;10.50;;;7.57;;
6031;SDS011;3044;43.232;27.972;2023-08-24T00:21:42;8.77;;;7.57;;
6031;SDS011;3044;43.232;27.972;2023-08-24T00:24:09;10.40;;;7.90;;
6031;SDS011;3044;43.232;27.972;2023-08-24T00:26:36;15.73;;;8.17;;
6031;SDS011;3044;43.232;27.972;2023-08-24T00:29:03;7.63;;;7.03;;
6031;SDS011;3044;43.232;27.972;2023-08-24T00:31:30;8.13;;;7.40;;
6031;SDS011;3044;43.232;27.972;2023-08-24T00:33:59;8.40;;;7.70;;
6031;SDS011;3044;43.232;27.972;2023-08-24T00:36:26;9.23;;;8.20;;
6031;SDS011;3044;43.232;27.972;2023-08-24T00:38:53;8.80;;;8.00;;
6031;SDS011;3044;43.232;27.972;2023-08-24T00:41:20;8.10;;;7.33;;
6031;SDS011;3044;43.232;27.972;2023-08-24T00:43:50;7.87;;;7.17;;
6031;SDS011;3044;43.232;27.972;2023-08-24T00:46:17;8.60;;;7.80;;
6031;SDS011;3044;43.232;27.972;2023-08-24T00:48:45;8.73;;;7.77;;
6031;SDS011;3044;43.232;27.972;2023-08-24T00:51:14;8.23;;;7.50;;
6031;SDS011;3044;43.232;27.972;2023-08-24T00:53:41;7.67;;;6.97;;
6031;SDS011;3044;43.232;27.972;2023-08-24T00:56:08;8.00;;;7.20;;
6031;SDS011;3044;43.232;27.972;2023-08-24T00:58:36;8.47;;;7.70;;
6031;SDS011;3044;43.232;27.972;2023-08-24T01:01:05;11.63;;;7.53;;
6031;SDS011;3044;43.232;27.972;2023-08-24T01:03:32;10.77;;;7.83;;
6031;SDS011;3044;43.232;27.972;2023-08-24T01:05:59;13.97;;;8.47;;
6031;SDS011;3044;43.232;27.972;2023-08-24T01:08:28;9.27;;;8.00;;
6031;SDS011;3044;43.232;27.972;2023-08-24T01:10:57;10.03;;;7.80;;
6031;SDS011;3044;43.232;27.972;2023-08-24T01:13:30;8.50;;;7.40;;
6031;SDS011;3044;43.232;27.972;2023-08-24T01:16:04;8.60;;;7.90;;
6031;SDS011;3044;43.232;27.972;2023-08-24T01:18:35;8.40;;;7.67;;
6031;SDS011;3044;43.232;27.972;2023-08-24T01:21:03;8.80;;;8.03;;
6031;SDS011;3044;43.232;27.972;2023-08-24T01:23:40;8.37;;;7.57;;
6031;SDS011;3044;43.232;27.972;2023-08-24T01:26:14;8.90;;;8.00;;
6031;SDS011;3044;43.232;27.972;2023-08-24T01:28:44;10.03;;;8.47;;
6031;SDS011;3044;43.232;27.972;2023-08-24T01:31:13;8.07;;;7.27;;
6031;SDS011;3044;43.232;27.972;2023-08-24T01:33:41;7.50;;;7.00;;
6031;SDS011;3044;43.232;27.972;2023-08-24T01:36:08;9.57;;;8.60;;
6031;SDS011;3044;43.232;27.972;2023-08-24T01:38:36;9.13;;;8.07;;
6031;SDS011;3044;43.232;27.972;2023-08-24T01:41:08;9.30;;;8.53;;
6031;SDS011;3044;43.232;27.972;2023-08-24T01:43:40;13.80;;;9.37;;
6031;SDS011;3044;43.232;27.972;2023-08-24T01:46:12;9.40;;;8.50;;
6031;SDS011;3044;43.232;27.972;2023-08-24T01:48:41;11.47;;;9.63;;
6031;SDS011;3044;43.232;27.972;2023-08-24T01:51:09;9.30;;;8.50;;
6031;SDS011;3044;43.232;27.972;2023-08-24T01:53:37;12.90;;;9.23;;
6031;SDS011;3044;43.232;27.972;2023-08-24T01:56:09;8.60;;;8.00;;
6031;SDS011;3044;43.232;27.972;2023-08-24T01:58:36;18.27;;;9.50;;
6031;SDS011;3044;43.232;27.972;2023-08-24T02:01:05;11.10;;;10.00;;
6031;SDS011;3044;43.232;27.972;2023-08-24T02:03:34;11.30;;;10.20;;
6031;SDS011;3044;43.232;27.972;2023-08-24T02:06:01;11.93;;;10.70;;
6031;SDS011;3044;43.232;27.972;2023-08-24T02:08:30;10.00;;;9.20;;
6031;SDS011;3044;43.232;27.972;2023-08-24T02:10:56;10.20;;;9.37;;
6031;SDS011;3044;43.232;27.972;2023-08-24T02:13:23;13.00;;;9.20;;
6031;SDS011;3044;43.232;27.972;2023-08-24T02:15:50;12.37;;;9.43;;
6031;SDS011;3044;43.232;27.972;2023-08-24T02:18:18;10.50;;;9.50;;
6031;SDS011;3044;43.232;27.972;2023-08-24T02:20:46;12.90;;;10.73;;
6031;SDS011;3044;43.232;27.972;2023-08-24T02:23:13;16.13;;;10.40;;
6031;SDS011;3044;43.232;27.972;2023-08-24T02:25:41;11.37;;;10.10;;
6031;SDS011;3044;43.232;27.972;2023-08-24T02:28:09;12.73;;;11.53;;
6031;SDS011;3044;43.232;27.972;2023-08-24T02:30:37;13.93;;;11.20;;
6031;SDS011;3044;43.232;27.972;2023-08-24T02:33:04;17.73;;;11.90;;
6031;SDS011;3044;43.232;27.972;2023-08-24T02:35:32;13.83;;;12.23;;
6031;SDS011;3044;43.232;27.972;2023-08-24T02:38:00;12.87;;;11.60;;
6031;SDS011;3044;43.232;27.972;2023-08-24T02:40:27;13.03;;;11.43;;
6031;SDS011;3044;43.232;27.972;2023-08-24T02:42:54;14.03;;;11.90;;
6031;SDS011;3044;43.232;27.972;2023-08-24T02:45:21;12.57;;;11.50;;
6031;SDS011;3044;43.232;27.972;2023-08-24T02:47:48;15.03;;;13.63;;
6031;SDS011;3044;43.232;27.972;2023-08-24T02:50:15;14.47;;;12.23;;
6031;SDS011;3044;43.232;27.972;2023-08-24T02:52:44;13.83;;;12.50;;
6031;SDS011;3044;43.232;27.972;2023-08-24T02:55:11;13.37;;;11.90;;
6031;SDS011;3044;43.232;27.972;2023-08-24T02:57:38;13.73;;;11.20;;
6031;SDS011;3044;43.232;27.972;2023-08-24T03:00:06;15.13;;;12.60;;
6031;SDS011;3044;43.232;27.972;2023-08-24T03:02:35;14.40;;;13.00;;
6031;SDS011;3044;43.232;27.972;2023-08-24T03:05:02;14.57;;;13.20;;
6031;SDS011;3044;43.232;27.972;2023-08-24T03:07:30;15.37;;;13.83;;
6031;SDS011;3044;43.232;27.972;2023-08-24T03:09:59;16.87;;;13.80;;
6031;SDS011;3044;43.232;27.972;2023-08-24T03:12:26;14.90;;;13.50;;
6031;SDS011;3044;43.232;27.972;2023-08-24T03:14:53;14.93;;;13.37;;
6031;SDS011;3044;43.232;27.972;2023-08-24T03:17:20;14.80;;;13.43;;
6031;SDS011;3044;43.232;27.972;2023-08-24T03:19:48;18.37;;;13.53;;
6031;SDS011;3044;43.232;27.972;2023-08-24T03:22:15;16.37;;;14.77;;
6031;SDS011;3044;43.232;27.972;2023-08-24T03:24:42;19.57;;;15.70;;
6031;SDS011;3044;43.232;27.972;2023-08-24T03:27:11;17.07;;;15.37;;
6031;SDS011;3044;43.232;27.972;2023-08-24T03:29:38;18.13;;;16.40;;
6031;SDS011;3044;43.232;27.972;2023-08-24T03:32:05;19.23;;;17.30;;
6031;SDS011;3044;43.232;27.972;2023-08-24T03:34:32;19.20;;;17.50;;
6031;SDS011;3044;43.232;27.972;2023-08-24T03:36:59;20.30;;;18.40;;
6031;SDS011;3044;43.232;27.972;2023-08-24T03:39:27;20.97;;;18.87;;
6031;SDS011;3044;43.232;27.972;2023-08-24T03:41:54;20.43;;;18.60;;
6031;SDS011;3044;43.232;27.972;2023-08-24T03:44:22;20.20;;;17.23;;
6031;SDS011;3044;43.232;27.972;2023-08-24T03:46:50;19.37;;;17.33;;
6031;SDS011;3044;43.232;27.972;2023-08-24T03:49:17;19.10;;;17.03;;
6031;SDS011;3044;43.232;27.972;2023-08-24T03:51:44;17.90;;;16.40;;
6031;SDS011;3044;43.232;27.972;2023-08-24T03:54:11;18.53;;;16.70;;
6031;SDS011;3044;43.232;27.972;2023-08-24T03:56:38;20.27;;;16.50;;
6031;SDS011;3044;43.232;27.972;2023-08-24T03:59:06;19.47;;;17.57;;
6031;SDS011;3044;43.232;27.972;2023-08-24T04:01:34;19.83;;;16.97;;
6031;SDS011;3044;43.232;27.972;2023-08-24T04:04:01;17.60;;;15.80;;
6031;SDS011;3044;43.232;27.972;2023-08-24T04:06:28;22.03;;;17.07;;
6031;SDS011;3044;43.232;27.972;2023-08-24T04:08:56;17.83;;;16.13;;
6031;SDS011;3044;43.232;27.972;2023-08-24T04:11:23;17.77;;;16.07;;
6031;SDS011;3044;43.232;27.972;2023-08-24T04:13:50;16.77;;;15.37;;
6031;SDS011;3044;43.232;27.972;2023-08-24T04:16:18;25.27;;;16.60;;
6031;SDS011;3044;43.232;27.972;2023-08-24T04:18:46;17.87;;;16.07;;
6031;SDS011;3044;43.232;27.972;2023-08-24T04:21:13;16.23;;;13.80;;
6031;SDS011;3044;43.232;27.972;2023-08-24T04:23:40;16.30;;;12.97;;
6031;SDS011;3044;43.232;27.972;2023-08-24T04:26:10;19.67;;;13.47;;
6031;SDS011;3044;43.232;27.972;2023-08-24T04:28:38;20.60;;;13.83;;
6031;SDS011;3044;43.232;27.972;2023-08-24T04:31:06;15.40;;;14.00;;
6031;SDS011;3044;43.232;27.972;2023-08-24T04:33:33;16.40;;;12.83;;
6031;SDS011;3044;43.232;27.972;2023-08-24T04:36:01;14.80;;;12.97;;
6031;SDS011;3044;43.232;27.972;2023-08-24T04:38:29;12.40;;;11.20;;
6031;SDS011;3044;43.232;27.972;2023-08-24T04:40:56;12.43;;;10.47;;
6031;SDS011;3044;43.232;27.972;2023-08-24T04:43:24;20.33;;;10.90;;
6031;SDS011;3044;43.232;27.972;2023-08-24T04:45:51;11.63;;;10.43;;
6031;SDS011;3044;43.232;27.972;2023-08-24T04:48:20;10.63;;;9.50;;
6031;SDS011;3044;43.232;27.972;2023-08-24T04:50:48;9.80;;;8.90;;
6031;SDS011;3044;43.232;27.972;2023-08-24T04:53:17;9.40;;;8.57;;
6031;SDS011;3044;43.232;27.972;2023-08-24T04:55:45;14.77;;;7.77;;
6031;SDS011;3044;43.232;27.972;2023-08-24T04:58:12;7.77;;;6.97;;
6031;SDS011;3044;43.232;27.972;2023-08-24T05:00:40;8.47;;;7.80;;
6031;SDS011;3044;43.232;27.972;2023-08-24T05:03:07;9.90;;;7.73;;
6031;SDS011;3044;43.232;27.972;2023-08-24T05:05:35;12.83;;;7.70;;
6031;SDS011;3044;43.232;27.972;2023-08-24T05:08:03;10.53;;;7.37;;
6031;SDS011;3044;43.232;27.972;2023-08-24T05:10:33;9.57;;;7.30;;
6031;SDS011;3044;43.232;27.972;2023-08-24T05:13:00;11.30;;;7.03;;
6031;SDS011;3044;43.232;27.972;2023-08-24T05:15:27;8.87;;;7.13;;
6031;SDS011;3044;43.232;27.972;2023-08-24T05:17:55;7.30;;;6.70;;
6031;SDS011;3044;43.232;27.972;2023-08-24T05:20:24;8.87;;;6.97;;
6031;SDS011;3044;43.232;27.972;2023-08-24T05:22:52;7.80;;;7.03;;
6031;SDS011;3044;43.232;27.972;2023-08-24T05:25:20;7.47;;;6.77;;
6031;SDS011;3044;43.232;27.972;2023-08-24T05:27:49;9.43;;;6.23;;
6031;SDS011;3044;43.232;27.972;2023-08-24T05:30:17;17.93;;;6.83;;
6031;SDS011;3044;43.232;27.972;2023-08-24T05:32:44;13.70;;;6.97;;
6031;SDS011;3044;43.232;27.972;2023-08-24T05:35:11;10.40;;;7.00;;
6031;SDS011;3044;43.232;27.972;2023-08-24T05:37:38;15.73;;;6.90;;
6031;SDS011;3044;43.232;27.972;2023-08-24T05:40:06;13.50;;;6.93;;
6031;SDS011;3044;43.232;27.972;2023-08-24T05:42:33;8.63;;;7.83;;
6031;SDS011;3044;43.232;27.972;2023-08-24T05:45:03;11.37;;;7.17;;
6031;SDS011;3044;43.232;27.972;2023-08-24T05:47:31;6.57;;;6.10;;
6031;SDS011;3044;43.232;27.972;2023-08-24T05:49:58;7.77;;;7.07;;
6031;SDS011;3044;43.232;27.972;2023-08-24T05:52:25;7.97;;;7.27;;
6031;SDS011;3044;43.232;27.972;2023-08-24T05:54:52;12.67;;;5.97;;
6031;SDS011;3044;43.232;27.972;2023-08-24T05:57:20;6.93;;;6.07;;
6031;SDS011;3044;43.232;27.972;2023-08-24T05:59:47;7.03;;;6.27;;
6031;SDS011;3044;43.232;27.972;2023-08-24T06:02:15;6.53;;;5.80;;
6031;SDS011;3044;43.232;27.972;2023-08-24T06:04:42;9.97;;;7.20;;
6031;SDS011;3044;43.232;27.972;2023-08-24T06:07:09;13.40;;;8.20;;
6031;SDS011;3044;43.232;27.972;2023-08-24T06:09:36;7.73;;;6.77;;
6031;SDS011;3044;43.232;27.972;2023-08-24T06:12:04;8.07;;;7.07;;
6031;SDS011;3044;43.232;27.972;2023-08-24T06:14:32;11.00;;;7.33;;
6031;SDS011;3044;43.232;27.972;2023-08-24T06:16:59;11.73;;;7.80;;
6031;SDS011;3044;43.232;27.972;2023-08-24T06:19:27;8.13;;;7.33;;
6031;SDS011;3044;43.232;27.972;2023-08-24T06:21:55;9.50;;;7.97;;
6031;SDS011;3044;43.232;27.972;2023-08-24T06:24:22;12.03;;;7.70;;
6031;SDS011;3044;43.232;27.972;2023-08-24T06:26:49;15.40;;;7.60;;
6031;SDS011;3044;43.232;27.972;2023-08-24T06:29:16;12.17;;;7.00;;
6031;SDS011;3044;43.232;27.972;2023-08-24T06:31:43;11.23;;;7.67;;
6031;SDS011;3044;43.232;27.972;2023-08-24T06:34:10;10.93;;;7.87;;
6031;SDS011;3044;43.232;27.972;2023-08-24T06:36:39;7.77;;;7.07;;
6031;SDS011;3044;43.232;27.972;2023-08-24T06:39:06;10.23;;;6.73;;
6031;SDS011;3044;43.232;27.972;2023-08-24T06:41:33;8.40;;;7.20;;
6031;SDS011;3044;43.232;27.972;2023-08-24T06:44:01;11.00;;;6.70;;
6031;SDS011;3044;43.232;27.972;2023-08-24T06:46:28;7.37;;;6.10;;
6031;SDS011;3044;43.232;27.972;2023-08-24T06:48:55;13.43;;;7.57;;
6031;SDS011;3044;43.232;27.972;2023-08-24T06:51:22;17.63;;;6.90;;
6031;SDS011;3044;43.232;27.972;2023-08-24T06:53:52;6.60;;;5.87;;
6031;SDS011;3044;43.232;27.972;2023-08-24T06:56:19;6.60;;;6.10;;
6031;SDS011;3044;43.232;27.972;2023-08-24T06:58:47;7.57;;;6.87;;
6031;SDS011;3044;43.232;27.972;2023-08-24T07:01:14;6.93;;;6.27;;
6031;SDS011;3044;43.232;27.972;2023-08-24T07:03:41;7.77;;;6.70;;
6031;SDS011;3044;43.232;27.972;2023-08-24T07:06:08;8.90;;;6.63;;
6031;SDS011;3044;43.232;27.972;2023-08-24T07:08:37;10.63;;;6.23;;
6031;SDS011;3044;43.232;27.972;2023-08-24T07:11:06;10.20;;;6.73;;
6031;SDS011;3044;43.232;27.972;2023-08-24T07:13:33;8.63;;;7.13;;
6031;SDS011;3044;43.232;27.972;2023-08-24T07:16:01;10.53;;;7.57;;
6031;SDS011;3044;43.232;27.972;2023-08-24T07:18:29;8.23;;;7.40;;
6031;SDS011;3044;43.232;27.972;2023-08-24T07:20:56;7.90;;;7.30;;
6031;SDS011;3044;43.232;27.972;2023-08-24T07:23:23;7.90;;;7.30;;
6031;SDS011;3044;43.232;27.972;2023-08-24T07:25:51;11.07;;;7.23;;
6031;SDS011;3044;43.232;27.972;2023-08-24T07:28:20;8.37;;;7.30;;
6031;SDS011;3044;43.232;27.972;2023-08-24T07:30:47;8.10;;;7.23;;
6031;SDS011;3044;43.232;27.972;2023-08-24T07:33:14;7.80;;;7.10;;
6031;SDS011;3044;43.232;27.972;2023-08-24T07:35:42;8.13;;;7.50;;
6031;SDS011;3044;43.232;27.972;2023-08-24T07:38:09;8.43;;;7.57;;
6031;SDS011;3044;43.232;27.972;2023-08-24T07:40:36;8.00;;;7.40;;
6031;SDS011;3044;43.232;27.972;2023-08-24T07:43:03;10.33;;;7.17;;
6031;SDS011;3044;43.232;27.972;2023-08-24T07:45:32;8.43;;;6.90;;
6031;SDS011;3044;43.232;27.972;2023-08-24T07:47:59;9.03;;;7.80;;
6031;SDS011;3044;43.232;27.972;2023-08-24T07:50:26;11.57;;;7.30;;
6031;SDS011;3044;43.232;27.972;2023-08-24T07:52:53;7.97;;;7.27;;
6031;SDS011;3044;43.232;27.972;2023-08-24T07:55:21;10.40;;;6.93;;
6031;SDS011;3044;43.232;27.972;2023-08-24T07:57:48;7.83;;;7.07;;
6031;SDS011;3044;43.232;27.972;2023-08-24T08:00:15;8.10;;;6.63;;
6031;SDS011;3044;43.232;27.972;2023-08-24T08:02:44;8.90;;;6.80;;
6031;SDS011;3044;43.232;27.972;2023-08-24T08:05:11;10.27;;;7.90;;
6031;SDS011;3044;43.232;27.972;2023-08-24T08:07:38;9.90;;;8.93;;
6031;SDS011;3044;43.232;27.972;2023-08-24T08:10:05;9.90;;;7.93;;
6031;SDS011;3044;43.232;27.972;2023-08-24T08:12:33;10.10;;;8.77;;
6031;SDS011;3044;43.232;27.972;2023-08-24T08:15:00;9.57;;;8.63;;
6031;SDS011;3044;43.232;27.972;2023-08-24T08:17:28;20.23;;;8.63;;
6031;SDS011;3044;43.232;27.972;2023-08-24T08:19:57;15.47;;;9.70;;
6031;SDS011;3044;43.232;27.972;2023-08-24T08:22:24;10.40;;;9.10;;
6031;SDS011;3044;43.232;27.972;2023-08-24T08:24:51;9.30;;;8.53;;
6031;SDS011;3044;43.232;27.972;2023-08-24T08:27:21;10.73;;;9.73;;
6031;SDS011;3044;43.232;27.972;2023-08-24T08:29:50;10.80;;;7.63;;
6031;SDS011;3044;43.232;27.972;2023-08-24T08:32:17;9.13;;;8.20;;
6031;SDS011;3044;43.232;27.972;2023-08-24T08:34:45;7.73;;;7.13;;
6031;SDS011;3044;43.232;27.972;2023-08-24T08:37:13;7.90;;;7.17;;
6031;SDS011;3044;43.232;27.972;2023-08-24T08:39:40;12.60;;;7.43;;
6031;SDS011;3044;43.232;27.972;2023-08-24T08:42:11;8.40;;;7.60;;
6031;SDS011;3044;43.232;27.972;2023-08-24T08:44:39;9.13;;;8.30;;
6031;SDS011;3044;43.232;27.972;2023-08-24T08:47:09;9.20;;;7.73;;
6031;SDS011;3044;43.232;27.972;2023-08-24T08:49:37;11.43;;;7.27;;
6031;SDS011;3044;43.232;27.972;2023-08-24T08:52:05;17.00;;;6.60;;
6031;SDS011;3044;43.232;27.972;2023-08-24T08:54:34;14.03;;;7.13;;
6031;SDS011;3044;43.232;27.972;2023-08-24T08:57:02;10.73;;;6.60;;
6031;SDS011;3044;43.232;27.972;2023-08-24T08:59:30;10.00;;;6.20;;
6031;SDS011;3044;43.232;27.972;2023-08-24T09:01:58;15.13;;;6.17;;
6031;SDS011;3044;43.232;27.972;2023-08-24T09:04:27;15.13;;;6.30;;
6031;SDS011;3044;43.232;27.972;2023-08-24T09:06:56;7.20;;;6.17;;
6031;SDS011;3044;43.232;27.972;2023-08-24T09:09:23;10.80;;;6.93;;
6031;SDS011;3044;43.232;27.972;2023-08-24T09:11:52;8.03;;;6.50;;
6031;SDS011;3044;43.232;27.972;2023-08-24T09:14:20;11.50;;;7.70;;
6031;SDS011;3044;43.232;27.972;2023-08-24T09:16:48;10.63;;;7.73;;
6031;SDS011;3044;43.232;27.972;2023-08-24T09:19:16;11.23;;;7.17;;
6031;SDS011;3044;43.232;27.972;2023-08-24T09:21:44;13.33;;;7.73;;
6031;SDS011;3044;43.232;27.972;2023-08-24T09:24:11;12.27;;;8.77;;
6031;SDS011;3044;43.232;27.972;2023-08-24T09:26:39;7.97;;;7.17;;
6031;SDS011;3044;43.232;27.972;2023-08-24T09:29:12;12.30;;;9.20;;
6031;SDS011;3044;43.232;27.972;2023-08-24T09:31:40;11.90;;;9.17;;
6031;SDS011;3044;43.232;27.972;2023-08-24T09:34:09;15.83;;;8.87;;
6031;SDS011;3044;43.232;27.972;2023-08-24T09:36:37;14.13;;;9.60;;
6031;SDS011;3044;43.232;27.972;2023-08-24T09:39:05;11.90;;;9.30;;
6031;SDS011;3044;43.232;27.972;2023-08-24T09:41:39;12.00;;;10.03;;
6031;SDS011;3044;43.232;27.972;2023-08-24T09:44:08;15.57;;;10.30;;
6031;SDS011;3044;43.232;27.972;2023-08-24T09:46:37;11.13;;;9.87;;
6031;SDS011;3044;43.232;27.972;2023-08-24T09:49:07;14.47;;;9.83;;
6031;SDS011;3044;43.232;27.972;2023-08-24T09:51:37;11.00;;;9.50;;
6031;SDS011;3044;43.232;27.972;2023-08-24T09:54:06;11.67;;;10.40;;
6031;SDS011;3044;43.232;27.972;2023-08-24T09:56:35;19.70;;;10.40;;
6031;SDS011;3044;43.232;27.972;2023-08-24T09:59:06;10.63;;;9.60;;
6031;SDS011;3044;43.232;27.972;2023-08-24T10:01:39;11.23;;;9.67;;
6031;SDS011;3044;43.232;27.972;2023-08-24T10:04:09;13.37;;;10.43;;
6031;SDS011;3044;43.232;27.972;2023-08-24T10:06:37;13.50;;;8.67;;
6031;SDS011;3044;43.232;27.972;2023-08-24T10:09:06;10.77;;;9.70;;
6031;SDS011;3044;43.232;27.972;2023-08-24T10:11:36;12.90;;;10.57;;
6031;SDS011;3044;43.232;27.972;2023-08-24T10:14:12;14.10;;;9.77;;
6031;SDS011;3044;43.232;27.972;2023-08-24T10:16:44;15.23;;;9.97;;
6031;SDS011;3044;43.232;27.972;2023-08-24T10:19:12;7.00;;;6.40;;
6031;SDS011;3044;43.232;27.972;2023-08-24T10:21:41;12.33;;;6.87;;
6031;SDS011;3044;43.232;27.972;2023-08-24T10:24:09;7.80;;;6.97;;
6031;SDS011;3044;43.232;27.972;2023-08-24T10:26:38;10.73;;;7.40;;
6031;SDS011;3044;43.232;27.972;2023-08-24T10:29:06;6.60;;;6.00;;
6031;SDS011;3044;43.232;27.972;2023-08-24T10:31:34;8.10;;;6.43;;
6031;SDS011;3044;43.232;27.972;2023-08-24T10:34:04;6.93;;;6.43;;
6031;SDS011;3044;43.232;27.972;2023-08-24T10:36:32;9.97;;;7.10;;
6031;SDS011;3044;43.232;27.972;2023-08-24T10:39:02;9.03;;;8.27;;
6031;SDS011;3044;43.232;27.972;2023-08-24T10:41:45;11.20;;;8.03;;
6031;SDS011;3044;43.232;27.972;2023-08-24T10:44:19;7.60;;;6.90;;
6031;SDS011;3044;43.232;27.972;2023-08-24T10:49:34;8.00;;;7.07;;
6031;SDS011;3044;43.232;27.972;2023-08-24T10:52:17;7.47;;;6.77;;
6031;SDS011;3044;43.232;27.972;2023-08-24T10:54:46;8.60;;;7.80;;
6031;SDS011;3044;43.232;27.972;2023-08-24T10:57:17;13.13;;;7.10;;
6031;SDS011;3044;43.232;27.972;2023-08-24T10:59:45;11.10;;;6.83;;
6031;SDS011;3044;43.232;27.972;2023-08-24T11:02:23;17.10;;;9.00;;
6031;SDS011;3044;43.232;27.972;2023-08-24T11:05:05;12.07;;;8.33;;
6031;SDS011;3044;43.232;27.972;2023-08-24T11:07:32;16.53;;;9.30;;
6031;SDS011;3044;43.232;27.972;2023-08-24T11:10:00;14.27;;;9.00;;
6031;SDS011;3044;43.232;27.972;2023-08-24T11:15:40;8.30;;;7.07;;
6031;SDS011;3044;43.232;27.972;2023-08-24T11:18:11;10.10;;;7.07;;
6031;SDS011;3044;43.232;27.972;2023-08-24T11:20:50;7.67;;;6.90;;
6031;SDS011;3044;43.232;27.972;2023-08-24T11:23:19;7.53;;;6.83;;
6031;SDS011;3044;43.232;27.972;2023-08-24T11:25:48;8.87;;;7.97;;
6031;SDS011;3044;43.232;27.972;2023-08-24T11:28:17;12.23;;;7.70;;
6031;SDS011;3044;43.232;27.972;2023-08-24T11:30:45;7.80;;;7.07;;
6031;SDS011;3044;43.232;27.972;2023-08-24T11:33:13;16.43;;;8.13;;
6031;SDS011;3044;43.232;27.972;2023-08-24T11:35:43;9.50;;;8.40;;
6031;SDS011;3044;43.232;27.972;2023-08-24T11:38:13;10.20;;;9.07;;
6031;SDS011;3044;43.232;27.972;2023-08-24T11:40:40;9.03;;;8.20;;
6031;SDS011;3044;43.232;27.972;2023-08-24T11:43:07;19.00;;;8.27;;
6031;SDS011;3044;43.232;27.972;2023-08-24T11:45:35;9.80;;;8.07;;
6031;SDS011;3044;43.232;27.972;2023-08-24T11:48:06;8.83;;;8.00;;
6031;SDS011;3044;43.232;27.972;2023-08-24T11:50:34;8.87;;;8.00;;
6031;SDS011;3044;43.232;27.972;2023-08-24T11:53:06;9.13;;;8.30;;
6031;SDS011;3044;43.232;27.972;2023-08-24T11:55:36;13.70;;;8.00;;
6031;SDS011;3044;43.232;27.972;2023-08-24T11:58:13;10.10;;;7.90;;
6031;SDS011;3044;43.232;27.972;2023-08-24T12:00:41;8.80;;;8.07;;
6031;SDS011;3044;43.232;27.972;2023-08-24T12:03:09;9.53;;;8.83;;
6031;SDS011;3044;43.232;27.972;2023-08-24T12:05:36;12.30;;;8.60;;
6031;SDS011;3044;43.232;27.972;2023-08-24T12:08:03;20.53;;;9.50;;
6031;SDS011;3044;43.232;27.972;2023-08-24T12:10:30;9.53;;;8.50;;
6031;SDS011;3044;43.232;27.972;2023-08-24T12:13:02;10.37;;;9.40;;
6031;SDS011;3044;43.232;27.972;2023-08-24T12:15:30;11.80;;;9.70;;
6031;SDS011;3044;43.232;27.972;2023-08-24T12:18:06;15.83;;;10.93;;
6031;SDS011;3044;43.232;27.972;2023-08-24T12:20:34;13.40;;;9.60;;
6031;SDS011;3044;43.232;27.972;2023-08-24T12:23:01;10.93;;;9.93;;
6031;SDS011;3044;43.232;27.972;2023-08-24T12:25:29;12.77;;;10.93;;
6031;SDS011;3044;43.232;27.972;2023-08-24T12:28:09;13.00;;;9.70;;
6031;SDS011;3044;43.232;27.972;2023-08-24T12:30:44;12.43;;;9.50;;
6031;SDS011;3044;43.232;27.972;2023-08-24T12:33:24;10.73;;;9.60;;
6031;SDS011;3044;43.232;27.972;2023-08-24T12:35:52;10.97;;;9.83;;
6031;SDS011;3044;43.232;27.972;2023-08-24T12:38:20;12.83;;;10.50;;
6031;SDS011;3044;43.232;27.972;2023-08-24T12:40:48;13.83;;;11.50;;
6031;SDS011;3044;43.232;27.972;2023-08-24T12:43:16;16.00;;;11.80;;
6031;SDS011;3044;43.232;27.972;2023-08-24T12:45:43;12.73;;;10.97;;
6031;SDS011;3044;43.232;27.972;2023-08-24T12:48:10;11.97;;;10.97;;
6031;SDS011;3044;43.232;27.972;2023-08-24T12:50:38;10.77;;;9.80;;
6031;SDS011;3044;43.232;27.972;2023-08-24T12:53:05;14.50;;;11.70;;
6031;SDS011;3044;43.232;27.972;2023-08-24T12:55:33;12.03;;;10.93;;
6031;SDS011;3044;43.232;27.972;2023-08-24T12:58:01;13.07;;;11.80;;
6031;SDS011;3044;43.232;27.972;2023-08-24T13:00:31;13.13;;;11.83;;
6031;SDS011;3044;43.232;27.972;2023-08-24T13:02:58;16.27;;;11.97;;
6031;SDS011;3044;43.232;27.972;2023-08-24T13:05:25;16.70;;;13.37;;
6031;SDS011;3044;43.232;27.972;2023-08-24T13:07:52;14.40;;;11.40;;
6031;SDS011;3044;43.232;27.972;2023-08-24T13:10:20;14.50;;;11.80;;
6031;SDS011;3044;43.232;27.972;2023-08-24T13:12:47;16.87;;;11.47;;
6031;SDS011;3044;43.232;27.972;2023-08-24T13:15:14;15.23;;;11.97;;
6031;SDS011;3044;43.232;27.972;2023-08-24T13:17:43;16.67;;;13.87;;
6031;SDS011;3044;43.232;27.972;2023-08-24T13:20:10;17.60;;;13.30;;
6031;SDS011;3044;43.232;27.972;2023-08-24T13:22:37;15.13;;;13.47;;
6031;SDS011;3044;43.232;27.972;2023-08-24T13:25:04;13.57;;;12.30;;
6031;SDS011;3044;43.232;27.972;2023-08-24T13:27:32;18.07;;;12.80;;
6031;SDS011;3044;43.232;27.972;2023-08-24T13:30:00;16.30;;;13.90;;
6031;SDS011;3044;43.232;27.972;2023-08-24T13:32:27;23.90;;;12.03;;
6031;SDS011;3044;43.232;27.972;2023-08-24T13:34:56;14.40;;;12.00;;
6031;SDS011;3044;43.232;27.972;2023-08-24T13:37:23;15.67;;;12.17;;
6031;SDS011;3044;43.232;27.972;2023-08-24T13:39:50;16.63;;;12.80;;
6031;SDS011;3044;43.232;27.972;2023-08-24T13:42:17;13.20;;;12.00;;
6031;SDS011;3044;43.232;27.972;2023-08-24T13:44:45;13.00;;;11.60;;
6031;SDS011;3044;43.232;27.972;2023-08-24T13:47:12;19.33;;;13.00;;
6031;SDS011;3044;43.232;27.972;2023-08-24T13:49:39;14.60;;;12.33;;
6031;SDS011;3044;43.232;27.972;2023-08-24T13:52:07;13.70;;;12.47;;
6031;SDS011;3044;43.232;27.972;2023-08-24T13:54:35;23.20;;;13.57;;
6031;SDS011;3044;43.232;27.972;2023-08-24T13:57:02;13.70;;;12.30;;
6031;SDS011;3044;43.232;27.972;2023-08-24T13:59:29;14.17;;;12.60;;
6031;SDS011;3044;43.232;27.972;2023-08-24T14:01:58;20.43;;;13.20;;
6031;SDS011;3044;43.232;27.972;2023-08-24T14:04:25;29.67;;;12.37;;
6031;SDS011;3044;43.232;27.972;2023-08-24T14:06:53;16.23;;;12.90;;
6031;SDS011;3044;43.232;27.972;2023-08-24T14:09:21;13.20;;;11.83;;
6031;SDS011;3044;43.232;27.972;2023-08-24T14:11:48;13.40;;;12.00;;
6031;SDS011;3044;43.232;27.972;2023-08-24T14:14:15;14.97;;;13.30;;
6031;SDS011;3044;43.232;27.972;2023-08-24T14:16:42;14.00;;;11.80;;
6031;SDS011;3044;43.232;27.972;2023-08-24T14:19:09;16.93;;;14.13;;
6031;SDS011;3044;43.232;27.972;2023-08-24T14:21:37;19.57;;;13.30;;
6031;SDS011;3044;43.232;27.972;2023-08-24T14:24:04;18.57;;;12.50;;
6031;SDS011;3044;43.232;27.972;2023-08-24T14:26:32;17.07;;;14.20;;
6031;SDS011;3044;43.232;27.972;2023-08-24T14:29:00;13.50;;;11.57;;
6031;SDS011;3044;43.232;27.972;2023-08-24T14:31:27;19.97;;;13.90;;
6031;SDS011;3044;43.232;27.972;2023-08-24T14:33:55;26.23;;;15.20;;
6031;SDS011;3044;43.232;27.972;2023-08-24T14:36:23;21.80;;;13.43;;
6031;SDS011;3044;43.232;27.972;2023-08-24T14:38:50;14.80;;;13.50;;
6031;SDS011;3044;43.232;27.972;2023-08-24T14:41:18;22.07;;;13.67;;
6031;SDS011;3044;43.232;27.972;2023-08-24T14:43:47;16.70;;;13.60;;
6031;SDS011;3044;43.232;27.972;2023-08-24T14:46:14;17.00;;;12.93;;
6031;SDS011;3044;43.232;27.972;2023-08-24T14:48:41;17.13;;;13.30;;
6031;SDS011;3044;43.232;27.972;2023-08-24T14:51:08;16.20;;;13.03;;
6031;SDS011;3044;43.232;27.972;2023-08-24T14:53:36;15.57;;;13.90;;
6031;SDS011;3044;43.232;27.972;2023-08-24T14:56:03;15.23;;;13.63;;
6031;SDS011;3044;43.232;27.972;2023-08-24T14:58:30;22.90;;;13.60;;
6031;SDS011;3044;43.232;27.972;2023-08-24T15:00:59;19.13;;;13.30;;